High temp

Not for real navigation. The accuracy of this data is not assured See disclaimer for more information



ICAO NAME COUNTRY WIND Kt GUST Kt VIS m TEMP/DEW C BARO METAR
DRRN Niamey-Aero Niger 11 21 8000 42/-6 29.83 DRRN 261200Z 06011G21KT 030V100 8000 NSC 42/M06 Q1010 NOSIG
FKKR Garoua Cameroon 12 0 9999 41/-3 29.77 FKKR 261200Z 05012KT 010V090 CAVOK 41/M03 Q1008 NOSIG
GAMB Mopti Mali 12 0 8000 41/-3 29.85 GAMB 261200Z 06012KT 8000 NSC 41/M03 Q1011
KQN3 12 17 9999 41/-1 29.90 KQN3 261156Z AUTO 13012G17KT 9999 CAVOK 41/M01 A2990 RMK AO2 SLP092 T04071011 10412 20266
DFFD Ouagadougou Burkina Faso 11 0 9999 41/3 29.85 DFFD 261200Z 09011KT 060V130 CAVOK 41/03 Q1011 NOSIG

Show more